VBV338 LEPA-LPPT
Flight info
| Callsign | VBV338 |
|---|---|
| Flight time | N/A |
| Altitude | 33000 |
| Route | EPAMA4B/06R EPAMA N733 VLC/N0364F130 N733 CJN N975 CCS DCT UPULO |
| Aircraft | B738/M-SDE2E3FGHIRWXY/LB1 |
Departure
| Time | N/A |
|---|---|
| Airport | Palma de Mallorca Airport (LEPA) |
Arrival
| Time | 2026-04-28 09:52 |
|---|---|
| Airport | Lisbon Humberto Delgado Airport (LPPT) |
| Time | Latitude | Longitude | Altitude | Speed | Heading |
|---|---|---|---|---|---|
| 2026-04-28 08:16 | 39.60485 | 1.40903 | 35849 ft | 326 kts | 265° |
| 2026-04-28 08:16 | 39.60303 | 1.38012 | 36413 ft | 317 kts | 265° |
| 2026-04-28 08:16 | 39.60145 | 1.35205 | 36975 ft | 307 kts | 265° |
| 2026-04-28 08:16 | 39.59994 | 1.32490 | 37519 ft | 297 kts | 265° |
| 2026-04-28 08:17 | 39.59843 | 1.29805 | 37645 ft | 302 kts | 265° |
| 2026-04-28 08:17 | 39.59740 | 1.27984 | 37602 ft | 309 kts | 265° |
| 2026-04-28 08:17 | 39.59418 | 1.22318 | 37764 ft | 320 kts | 265° |
| 2026-04-28 08:18 | 39.59082 | 1.16478 | 37948 ft | 330 kts | 265° |
| 2026-04-28 08:18 | 39.58733 | 1.10468 | 38038 ft | 340 kts | 265° |
| 2026-04-28 08:19 | 39.58370 | 1.04230 | 38043 ft | 353 kts | 265° |
| 2026-04-28 08:19 | 39.58034 | 0.97763 | 38044 ft | 366 kts | 265° |
| 2026-04-28 08:20 | 39.57658 | 0.91075 | 38043 ft | 378 kts | 264° |
| 2026-04-28 08:20 | 39.57250 | 0.84167 | 38041 ft | 390 kts | 264° |
| 2026-04-28 08:21 | 39.56819 | 0.77062 | 38041 ft | 401 kts | 264° |
| 2026-04-28 08:21 | 39.56371 | 0.69760 | 38041 ft | 411 kts | 264° |
| 2026-04-28 08:22 | 39.55911 | 0.62280 | 38042 ft | 421 kts | 264° |
| 2026-04-28 08:22 | 39.55459 | 0.54629 | 38044 ft | 430 kts | 264° |
| 2026-04-28 08:23 | 39.54976 | 0.46842 | 38044 ft | 437 kts | 264° |
| 2026-04-28 08:23 | 39.54480 | 0.39002 | 38045 ft | 441 kts | 264° |
| 2026-04-28 08:24 | 39.53975 | 0.31071 | 38046 ft | 441 kts | 264° |
| 2026-04-28 08:24 | 39.53450 | 0.23098 | 38048 ft | 441 kts | 264° |
| 2026-04-28 08:25 | 39.52932 | 0.15243 | 38049 ft | 441 kts | 264° |
| 2026-04-28 08:26 | 39.52133 | 0.03381 | 38050 ft | 441 kts | 264° |
| 2026-04-28 08:26 | 39.51596 | -0.04538 | 38050 ft | 443 kts | 263° |
| 2026-04-28 08:27 | 39.51089 | -0.12541 | 38052 ft | 447 kts | 263° |
| 2026-04-28 08:27 | 39.50558 | -0.20568 | 38052 ft | 447 kts | 263° |
| 2026-04-28 08:28 | 39.50004 | -0.28558 | 38052 ft | 444 kts | 263° |
| 2026-04-28 08:28 | 39.49446 | -0.36442 | 38052 ft | 435 kts | 262° |
| 2026-04-28 08:29 | 39.49006 | -0.44206 | 38047 ft | 433 kts | 270° |
| 2026-04-28 08:29 | 39.49412 | -0.48079 | 38052 ft | 438 kts | 281° |
| 2026-04-28 08:29 | 39.50418 | -0.51820 | 38056 ft | 443 kts | 291° |
| 2026-04-28 08:30 | 39.53280 | -0.58915 | 38052 ft | 446 kts | 296° |
| 2026-04-28 08:30 | 39.56371 | -0.65875 | 38053 ft | 445 kts | 296° |
| 2026-04-28 08:31 | 39.59448 | -0.72836 | 38053 ft | 445 kts | 296° |
| 2026-04-28 08:31 | 39.62492 | -0.79770 | 38053 ft | 445 kts | 296° |
| 2026-04-28 08:32 | 39.65541 | -0.86754 | 38053 ft | 445 kts | 296° |
| 2026-04-28 08:32 | 39.68587 | -0.93743 | 38053 ft | 445 kts | 296° |
| 2026-04-28 08:33 | 39.71634 | -1.00736 | 38053 ft | 445 kts | 296° |
| 2026-04-28 08:33 | 39.74674 | -1.07723 | 38052 ft | 444 kts | 296° |
| 2026-04-28 08:34 | 39.77708 | -1.14724 | 38052 ft | 444 kts | 296° |
| 2026-04-28 08:34 | 39.80738 | -1.21744 | 38051 ft | 445 kts | 296° |
| 2026-04-28 08:35 | 39.83805 | -1.28731 | 38050 ft | 444 kts | 296° |
| 2026-04-28 08:35 | 39.86850 | -1.35720 | 38051 ft | 444 kts | 296° |
| 2026-04-28 08:36 | 39.89895 | -1.42725 | 38050 ft | 444 kts | 296° |
| 2026-04-28 08:36 | 39.92916 | -1.49738 | 38051 ft | 444 kts | 296° |
| 2026-04-28 08:37 | 39.95925 | -1.56753 | 38050 ft | 444 kts | 296° |
| 2026-04-28 08:37 | 39.98928 | -1.63774 | 38049 ft | 443 kts | 296° |
| 2026-04-28 08:38 | 40.01963 | -1.70778 | 38049 ft | 443 kts | 296° |
| 2026-04-28 08:38 | 40.04969 | -1.77801 | 38048 ft | 443 kts | 296° |
| 2026-04-28 08:39 | 40.07960 | -1.84837 | 38048 ft | 443 kts | 296° |
| 2026-04-28 08:39 | 40.10910 | -1.91802 | 38043 ft | 443 kts | 295° |
| 2026-04-28 08:40 | 40.13896 | -1.98855 | 38043 ft | 443 kts | 295° |
| 2026-04-28 08:40 | 40.16894 | -2.05899 | 38042 ft | 443 kts | 296° |
| 2026-04-28 08:41 | 40.19912 | -2.12995 | 38041 ft | 450 kts | 296° |
| 2026-04-28 08:41 | 40.22964 | -2.20212 | 38040 ft | 456 kts | 296° |
| 2026-04-28 08:42 | 40.26024 | -2.27511 | 38039 ft | 457 kts | 295° |
| 2026-04-28 08:42 | 40.29064 | -2.34819 | 38038 ft | 456 kts | 295° |
| 2026-04-28 08:43 | 40.32090 | -2.42128 | 38035 ft | 456 kts | 295° |
| 2026-04-28 08:43 | 40.35078 | -2.49461 | 38028 ft | 454 kts | 290° |
| 2026-04-28 08:43 | 40.35996 | -2.53384 | 38030 ft | 448 kts | 276° |
| 2026-04-28 08:44 | 40.36119 | -2.57434 | 38033 ft | 444 kts | 263° |
| 2026-04-28 08:44 | 40.34858 | -2.65329 | 38031 ft | 442 kts | 253° |
| 2026-04-28 08:45 | 40.33193 | -2.73079 | 38027 ft | 442 kts | 252° |
| 2026-04-28 08:45 | 40.31510 | -2.80768 | 38026 ft | 442 kts | 252° |
| 2026-04-28 08:46 | 40.29807 | -2.88499 | 38026 ft | 442 kts | 252° |
| 2026-04-28 08:46 | 40.28100 | -2.96214 | 38024 ft | 441 kts | 252° |
| 2026-04-28 08:47 | 40.26391 | -3.03933 | 38024 ft | 442 kts | 252° |
| 2026-04-28 08:47 | 40.24683 | -3.11654 | 38024 ft | 442 kts | 252° |
| 2026-04-28 08:48 | 40.22960 | -3.19386 | 38023 ft | 442 kts | 252° |
| 2026-04-28 08:48 | 40.21243 | -3.27104 | 38023 ft | 442 kts | 252° |
| 2026-04-28 08:49 | 40.19535 | -3.34839 | 38023 ft | 442 kts | 252° |
| 2026-04-28 08:49 | 40.17829 | -3.42567 | 38023 ft | 442 kts | 252° |
| 2026-04-28 08:50 | 40.16102 | -3.50278 | 38023 ft | 441 kts | 252° |
| 2026-04-28 08:50 | 40.14364 | -3.57979 | 38023 ft | 442 kts | 252° |
| 2026-04-28 08:51 | 40.12623 | -3.65672 | 38023 ft | 442 kts | 252° |
| 2026-04-28 08:51 | 40.10878 | -3.73370 | 38023 ft | 442 kts | 251° |
| 2026-04-28 08:52 | 40.09109 | -3.81056 | 38023 ft | 442 kts | 251° |
| 2026-04-28 08:52 | 40.07334 | -3.88739 | 38022 ft | 442 kts | 251° |
| 2026-04-28 08:53 | 40.05576 | -3.96426 | 38021 ft | 442 kts | 252° |
| 2026-04-28 08:53 | 40.03818 | -4.04121 | 38020 ft | 442 kts | 251° |
| 2026-04-28 08:54 | 40.02047 | -4.11742 | 38019 ft | 442 kts | 251° |
| 2026-04-28 08:54 | 40.00255 | -4.19409 | 38018 ft | 442 kts | 251° |
| 2026-04-28 08:55 | 39.98456 | -4.27071 | 38016 ft | 442 kts | 251° |
| 2026-04-28 08:55 | 39.96666 | -4.34743 | 38015 ft | 442 kts | 252° |
| 2026-04-28 08:56 | 39.95121 | -4.42518 | 38013 ft | 444 kts | 253° |
| 2026-04-28 08:56 | 39.93572 | -4.50303 | 38011 ft | 444 kts | 253° |
| 2026-04-28 08:57 | 39.92002 | -4.58089 | 38008 ft | 444 kts | 253° |
| 2026-04-28 08:57 | 39.90409 | -4.65866 | 38005 ft | 444 kts | 253° |
| 2026-04-28 08:58 | 39.88807 | -4.73642 | 38003 ft | 445 kts | 253° |
| 2026-04-28 08:58 | 39.87194 | -4.81435 | 38001 ft | 446 kts | 253° |
| 2026-04-28 08:59 | 39.85578 | -4.89224 | 37992 ft | 446 kts | 253° |
| 2026-04-28 08:59 | 39.83995 | -4.97031 | 37987 ft | 446 kts | 253° |
| 2026-04-28 09:00 | 39.82380 | -5.04828 | 37983 ft | 446 kts | 252° |
| 2026-04-28 09:00 | 39.80763 | -5.12612 | 37982 ft | 446 kts | 252° |
| 2026-04-28 09:01 | 39.79129 | -5.20387 | 37979 ft | 446 kts | 252° |
| 2026-04-28 09:01 | 39.77489 | -5.28151 | 37970 ft | 446 kts | 252° |
| 2026-04-28 09:02 | 39.75841 | -5.35934 | 37978 ft | 446 kts | 252° |
| 2026-04-28 09:02 | 39.74184 | -5.43702 | 37971 ft | 446 kts | 252° |
| 2026-04-28 09:03 | 39.72518 | -5.51477 | 37967 ft | 447 kts | 252° |
| 2026-04-28 09:03 | 39.70844 | -5.59254 | 37956 ft | 447 kts | 252° |
| 2026-04-28 09:04 | 39.69165 | -5.67026 | 37951 ft | 447 kts | 252° |
| 2026-04-28 09:04 | 39.67768 | -5.73478 | 37943 ft | 447 kts | 252° |
| 2026-04-28 09:05 | 39.66113 | -5.81250 | 37938 ft | 447 kts | 252° |
| 2026-04-28 09:05 | 39.64448 | -5.89010 | 37936 ft | 446 kts | 252° |
| 2026-04-28 09:06 | 39.62772 | -5.96758 | 37934 ft | 446 kts | 252° |
| 2026-04-28 09:06 | 39.61093 | -6.04504 | 37931 ft | 447 kts | 252° |
| 2026-04-28 09:07 | 39.59418 | -6.12266 | 37929 ft | 447 kts | 252° |
| 2026-04-28 09:07 | 39.57716 | -6.20015 | 37924 ft | 446 kts | 251° |
| 2026-04-28 09:08 | 39.56015 | -6.27693 | 37922 ft | 446 kts | 251° |
| 2026-04-28 09:08 | 39.54296 | -6.35426 | 37920 ft | 446 kts | 251° |
| 2026-04-28 09:09 | 39.52480 | -6.43098 | 37918 ft | 446 kts | 247° |
| 2026-04-28 09:09 | 39.49863 | -6.50364 | 37916 ft | 444 kts | 241° |
| 2026-04-28 09:10 | 39.47062 | -6.57498 | 37915 ft | 444 kts | 241° |
| 2026-04-28 09:10 | 39.44261 | -6.64630 | 37914 ft | 444 kts | 241° |
| 2026-04-28 09:11 | 39.41456 | -6.71768 | 37913 ft | 446 kts | 241° |
| 2026-04-28 09:11 | 39.38643 | -6.78912 | 37911 ft | 445 kts | 241° |
| 2026-04-28 09:12 | 39.35848 | -6.86048 | 37909 ft | 445 kts | 241° |
| 2026-04-28 09:12 | 39.33080 | -6.93139 | 37804 ft | 446 kts | 241° |
| 2026-04-28 09:12 | 39.31679 | -6.96710 | 37306 ft | 444 kts | 241° |
| 2026-04-28 09:13 | 39.30290 | -7.00245 | 36778 ft | 439 kts | 241° |
| 2026-04-28 09:13 | 39.28914 | -7.03736 | 36288 ft | 434 kts | 241° |
| 2026-04-28 09:13 | 39.27550 | -7.07192 | 35777 ft | 431 kts | 241° |
| 2026-04-28 09:13 | 39.26196 | -7.10617 | 35282 ft | 427 kts | 240° |
| 2026-04-28 09:14 | 39.24853 | -7.14011 | 34800 ft | 422 kts | 240° |
| 2026-04-28 09:14 | 39.23519 | -7.17375 | 34272 ft | 419 kts | 240° |
| 2026-04-28 09:14 | 39.22199 | -7.20702 | 33747 ft | 416 kts | 240° |
| 2026-04-28 09:14 | 39.20885 | -7.24009 | 33223 ft | 413 kts | 240° |
| 2026-04-28 09:15 | 39.19577 | -7.27295 | 32697 ft | 410 kts | 241° |
| 2026-04-28 09:15 | 39.18291 | -7.30559 | 32171 ft | 406 kts | 241° |
| 2026-04-28 09:15 | 39.17016 | -7.33784 | 31644 ft | 402 kts | 241° |
| 2026-04-28 09:15 | 39.15745 | -7.36980 | 31081 ft | 400 kts | 241° |
| 2026-04-28 09:16 | 39.14472 | -7.40167 | 30506 ft | 400 kts | 241° |
| 2026-04-28 09:16 | 39.13198 | -7.43348 | 29930 ft | 400 kts | 241° |
| 2026-04-28 09:16 | 39.11921 | -7.46530 | 29354 ft | 400 kts | 241° |
| 2026-04-28 09:16 | 39.10644 | -7.49704 | 28780 ft | 400 kts | 241° |
| 2026-04-28 09:17 | 39.09366 | -7.52879 | 28203 ft | 399 kts | 241° |
| 2026-04-28 09:17 | 39.08088 | -7.56052 | 27628 ft | 399 kts | 240° |
| 2026-04-28 09:17 | 39.06812 | -7.59216 | 27052 ft | 398 kts | 241° |
| 2026-04-28 09:17 | 39.05536 | -7.62379 | 26476 ft | 398 kts | 240° |
| 2026-04-28 09:18 | 39.04269 | -7.65532 | 25901 ft | 397 kts | 241° |
| 2026-04-28 09:18 | 39.03048 | -7.68719 | 25325 ft | 397 kts | 242° |
| 2026-04-28 09:18 | 39.01847 | -7.71911 | 24772 ft | 395 kts | 242° |
| 2026-04-28 09:18 | 39.00649 | -7.75072 | 24270 ft | 393 kts | 242° |
| 2026-04-28 09:19 | 38.99452 | -7.78215 | 23769 ft | 390 kts | 242° |
| 2026-04-28 09:19 | 38.98258 | -7.81338 | 23268 ft | 387 kts | 242° |
| 2026-04-28 09:19 | 38.97071 | -7.84436 | 22767 ft | 385 kts | 242° |
| 2026-04-28 09:19 | 38.95889 | -7.87514 | 22265 ft | 383 kts | 242° |
| 2026-04-28 09:20 | 38.94713 | -7.90571 | 21765 ft | 381 kts | 242° |
| 2026-04-28 09:20 | 38.93544 | -7.93609 | 21264 ft | 379 kts | 242° |
| 2026-04-28 09:20 | 38.92395 | -7.96592 | 20770 ft | 376 kts | 242° |
| 2026-04-28 09:20 | 38.91204 | -7.99622 | 20262 ft | 374 kts | 239° |
| 2026-04-28 09:21 | 38.89861 | -8.02414 | 19767 ft | 371 kts | 233° |
| 2026-04-28 09:21 | 38.88308 | -8.05043 | 19268 ft | 368 kts | 230° |
| 2026-04-28 09:21 | 38.86683 | -8.07568 | 18766 ft | 366 kts | 228° |
| 2026-04-28 09:21 | 38.85042 | -8.10067 | 18266 ft | 365 kts | 229° |
| 2026-04-28 09:22 | 38.83414 | -8.12552 | 17765 ft | 363 kts | 229° |
| 2026-04-28 09:22 | 38.81793 | -8.15030 | 17265 ft | 362 kts | 229° |
| 2026-04-28 09:22 | 38.80183 | -8.17495 | 16764 ft | 360 kts | 229° |
| 2026-04-28 09:22 | 38.78577 | -8.19954 | 16263 ft | 359 kts | 229° |
| 2026-04-28 09:23 | 38.76982 | -8.22397 | 15764 ft | 357 kts | 229° |
| 2026-04-28 09:23 | 38.75390 | -8.24839 | 15262 ft | 356 kts | 229° |
| 2026-04-28 09:23 | 38.73821 | -8.27280 | 14761 ft | 354 kts | 229° |
| 2026-04-28 09:23 | 38.72253 | -8.29705 | 14260 ft | 352 kts | 229° |
| 2026-04-28 09:24 | 38.70692 | -8.32112 | 13760 ft | 351 kts | 229° |
| 2026-04-28 09:24 | 38.69139 | -8.34499 | 13261 ft | 349 kts | 229° |
| 2026-04-28 09:24 | 38.67580 | -8.36887 | 12758 ft | 347 kts | 229° |
| 2026-04-28 09:24 | 38.66036 | -8.39249 | 12258 ft | 346 kts | 229° |
| 2026-04-28 09:25 | 38.64496 | -8.41601 | 11757 ft | 344 kts | 229° |
| 2026-04-28 09:25 | 38.62964 | -8.43939 | 11256 ft | 343 kts | 229° |
| 2026-04-28 09:25 | 38.61431 | -8.46274 | 10754 ft | 342 kts | 229° |
| 2026-04-28 09:25 | 38.59906 | -8.48595 | 10255 ft | 341 kts | 229° |
| 2026-04-28 09:26 | 38.58382 | -8.50917 | 9753 ft | 341 kts | 230° |
| 2026-04-28 09:26 | 38.56857 | -8.53238 | 9251 ft | 341 kts | 230° |
| 2026-04-28 09:26 | 38.55342 | -8.55544 | 8749 ft | 336 kts | 230° |
| 2026-04-28 09:26 | 38.53846 | -8.57800 | 8247 ft | 329 kts | 229° |
| 2026-04-28 09:27 | 38.50908 | -8.62133 | 7245 ft | 317 kts | 229° |
| 2026-04-28 09:27 | 38.49482 | -8.64229 | 6976 ft | 305 kts | 229° |
| 2026-04-28 09:27 | 38.48134 | -8.66208 | 6903 ft | 287 kts | 229° |
| 2026-04-28 09:28 | 38.46864 | -8.68067 | 6870 ft | 269 kts | 229° |
| 2026-04-28 09:28 | 38.45670 | -8.69816 | 6856 ft | 256 kts | 229° |
| 2026-04-28 09:28 | 38.44519 | -8.71500 | 6858 ft | 248 kts | 229° |
| 2026-04-28 09:28 | 38.43397 | -8.73138 | 6863 ft | 245 kts | 229° |
| 2026-04-28 09:29 | 38.42273 | -8.74780 | 6874 ft | 246 kts | 229° |
| 2026-04-28 09:29 | 38.41139 | -8.76436 | 6880 ft | 248 kts | 229° |
| 2026-04-28 09:29 | 38.40003 | -8.78093 | 6882 ft | 248 kts | 229° |
| 2026-04-28 09:29 | 38.38868 | -8.79748 | 6886 ft | 248 kts | 229° |
| 2026-04-28 09:30 | 38.37732 | -8.81405 | 6883 ft | 248 kts | 229° |
| 2026-04-28 09:30 | 38.36595 | -8.83062 | 6878 ft | 248 kts | 229° |
| 2026-04-28 09:30 | 38.35474 | -8.84694 | 6906 ft | 248 kts | 229° |
| 2026-04-28 09:30 | 38.34342 | -8.86347 | 6921 ft | 248 kts | 229° |
| 2026-04-28 09:31 | 38.33547 | -8.88287 | 6881 ft | 249 kts | 255° |
| 2026-04-28 09:31 | 38.33537 | -8.90469 | 6882 ft | 249 kts | 282° |
| 2026-04-28 09:31 | 38.34278 | -8.92444 | 6892 ft | 249 kts | 306° |
| 2026-04-28 09:31 | 38.35498 | -8.94009 | 6903 ft | 249 kts | 320° |
| 2026-04-28 09:32 | 38.36836 | -8.95415 | 6895 ft | 249 kts | 319° |
| 2026-04-28 09:32 | 38.38125 | -8.96890 | 6888 ft | 249 kts | 317° |
| 2026-04-28 09:32 | 38.39125 | -8.98670 | 6851 ft | 249 kts | 292° |
| 2026-04-28 09:32 | 38.39374 | -9.00828 | 6864 ft | 249 kts | 265° |
| 2026-04-28 09:33 | 38.38855 | -9.02922 | 6887 ft | 248 kts | 242° |
| 2026-04-28 09:33 | 38.37915 | -9.04764 | 6896 ft | 248 kts | 234° |
| 2026-04-28 09:33 | 38.36892 | -9.06538 | 6887 ft | 248 kts | 234° |
| 2026-04-28 09:33 | 38.35906 | -9.08340 | 6882 ft | 249 kts | 235° |
| 2026-04-28 09:34 | 38.34991 | -9.10211 | 6873 ft | 249 kts | 243° |
| 2026-04-28 09:34 | 38.34387 | -9.12302 | 6883 ft | 249 kts | 254° |
| 2026-04-28 09:34 | 38.34016 | -9.14430 | 6882 ft | 250 kts | 259° |
| 2026-04-28 09:34 | 38.33708 | -9.16602 | 6878 ft | 249 kts | 259° |
| 2026-04-28 09:35 | 38.33389 | -9.18764 | 6879 ft | 248 kts | 259° |
| 2026-04-28 09:35 | 38.33064 | -9.20934 | 6878 ft | 249 kts | 259° |
| 2026-04-28 09:35 | 38.32826 | -9.23108 | 6871 ft | 249 kts | 266° |
| 2026-04-28 09:35 | 38.32910 | -9.25312 | 6879 ft | 249 kts | 276° |
| 2026-04-28 09:36 | 38.33214 | -9.27490 | 6879 ft | 250 kts | 281° |
| 2026-04-28 09:36 | 38.33588 | -9.29646 | 6878 ft | 249 kts | 282° |
| 2026-04-28 09:36 | 38.33943 | -9.31805 | 6878 ft | 249 kts | 281° |
| 2026-04-28 09:36 | 38.34295 | -9.33967 | 6878 ft | 249 kts | 281° |
| 2026-04-28 09:37 | 38.34733 | -9.36102 | 6872 ft | 249 kts | 289° |
| 2026-04-28 09:37 | 38.35478 | -9.38091 | 6879 ft | 250 kts | 299° |
| 2026-04-28 09:37 | 38.36419 | -9.39954 | 6879 ft | 250 kts | 304° |
| 2026-04-28 09:37 | 38.37415 | -9.41766 | 6880 ft | 250 kts | 304° |
| 2026-04-28 09:38 | 38.38396 | -9.43596 | 6878 ft | 250 kts | 304° |
| 2026-04-28 09:38 | 38.39373 | -9.45431 | 6769 ft | 253 kts | 304° |
| 2026-04-28 09:38 | 38.40471 | -9.47240 | 6317 ft | 261 kts | 313° |
| 2026-04-28 09:38 | 38.41838 | -9.48795 | 5847 ft | 266 kts | 322° |
| 2026-04-28 09:39 | 38.43377 | -9.50132 | 5377 ft | 270 kts | 327° |
| 2026-04-28 09:39 | 38.44976 | -9.51413 | 4903 ft | 273 kts | 327° |
| 2026-04-28 09:39 | 38.46629 | -9.52635 | 4417 ft | 277 kts | 338° |
| 2026-04-28 09:39 | 38.48515 | -9.52995 | 4079 ft | 271 kts | 3° |
| 2026-04-28 09:40 | 38.50254 | -9.52299 | 4007 ft | 258 kts | 28° |
| 2026-04-28 09:40 | 38.51504 | -9.50762 | 3981 ft | 244 kts | 56° |
| 2026-04-28 09:40 | 38.52019 | -9.48778 | 3917 ft | 233 kts | 83° |
| 2026-04-28 09:40 | 38.51823 | -9.46732 | 3536 ft | 236 kts | 103° |
| 2026-04-28 09:41 | 38.51423 | -9.44676 | 3152 ft | 237 kts | 101° |
| 2026-04-28 09:41 | 38.51180 | -9.42696 | 3099 ft | 214 kts | 94° |
| 2026-04-28 09:41 | 38.51146 | -9.40938 | 3000 ft | 189 kts | 86° |
| 2026-04-28 09:41 | 38.51223 | -9.39348 | 2939 ft | 171 kts | 84° |
| 2026-04-28 09:42 | 38.51321 | -9.37906 | 2953 ft | 158 kts | 82° |
| 2026-04-28 09:42 | 38.51448 | -9.36535 | 2941 ft | 153 kts | 81° |
| 2026-04-28 09:42 | 38.51583 | -9.35196 | 3010 ft | 148 kts | 80° |
| 2026-04-28 09:42 | 38.51719 | -9.33887 | 3021 ft | 149 kts | 80° |
| 2026-04-28 09:43 | 38.51857 | -9.32594 | 3017 ft | 149 kts | 79° |
| 2026-04-28 09:43 | 38.52000 | -9.31281 | 3013 ft | 149 kts | 80° |
| 2026-04-28 09:43 | 38.52146 | -9.29972 | 3006 ft | 149 kts | 80° |
| 2026-04-28 09:43 | 38.52293 | -9.28662 | 3002 ft | 149 kts | 79° |
| 2026-04-28 09:44 | 38.52441 | -9.27356 | 3001 ft | 149 kts | 79° |
| 2026-04-28 09:44 | 38.52591 | -9.26047 | 3006 ft | 149 kts | 79° |
| 2026-04-28 09:44 | 38.52741 | -9.24746 | 2995 ft | 148 kts | 79° |
| 2026-04-28 09:44 | 38.52890 | -9.23448 | 2998 ft | 148 kts | 79° |
| 2026-04-28 09:45 | 38.53048 | -9.22153 | 2997 ft | 147 kts | 77° |
| 2026-04-28 09:45 | 38.53645 | -9.21155 | 2866 ft | 145 kts | 28° |
| 2026-04-28 09:45 | 38.54626 | -9.21069 | 2958 ft | 143 kts | 350° |
| 2026-04-28 09:45 | 38.55572 | -9.21461 | 3040 ft | 143 kts | 339° |
| 2026-04-28 09:46 | 38.56491 | -9.21969 | 3041 ft | 144 kts | 335° |
| 2026-04-28 09:46 | 38.57389 | -9.22524 | 3023 ft | 143 kts | 334° |
| 2026-04-28 09:46 | 38.58283 | -9.23086 | 3013 ft | 143 kts | 334° |
| 2026-04-28 09:46 | 38.59235 | -9.23435 | 2977 ft | 144 kts | 354° |
| 2026-04-28 09:47 | 38.60218 | -9.23261 | 2997 ft | 143 kts | 13° |
| 2026-04-28 09:47 | 38.61152 | -9.22810 | 3014 ft | 144 kts | 23° |
| 2026-04-28 09:47 | 38.62056 | -9.22259 | 3009 ft | 144 kts | 24° |
| 2026-04-28 09:47 | 38.62966 | -9.21731 | 3007 ft | 144 kts | 23° |
| 2026-04-28 09:48 | 38.63885 | -9.21218 | 2986 ft | 145 kts | 22° |
| 2026-04-28 09:48 | 38.64815 | -9.20711 | 2861 ft | 145 kts | 22° |
| 2026-04-28 09:48 | 38.65741 | -9.20212 | 2663 ft | 145 kts | 22° |
| 2026-04-28 09:48 | 38.66676 | -9.19711 | 2471 ft | 144 kts | 21° |
| 2026-04-28 09:49 | 38.67598 | -9.19218 | 2275 ft | 143 kts | 22° |
| 2026-04-28 09:49 | 38.68515 | -9.18729 | 2085 ft | 142 kts | 22° |
| 2026-04-28 09:49 | 38.69424 | -9.18244 | 1894 ft | 142 kts | 22° |
| 2026-04-28 09:49 | 38.70322 | -9.17765 | 1712 ft | 141 kts | 22° |
| 2026-04-28 09:50 | 38.71227 | -9.17282 | 1522 ft | 141 kts | 22° |
| 2026-04-28 09:50 | 38.72152 | -9.16788 | 1345 ft | 147 kts | 23° |
| 2026-04-28 09:50 | 38.73127 | -9.16268 | 1145 ft | 155 kts | 23° |
| 2026-04-28 09:50 | 38.74113 | -9.15742 | 924 ft | 151 kts | 23° |
| 2026-04-28 09:51 | 38.74757 | -9.15397 | 784 ft | 147 kts | 23° |
| 2026-04-28 09:51 | 38.75678 | -9.14905 | 601 ft | 145 kts | 23° |
| 2026-04-28 09:51 | 38.76627 | -9.14398 | 421 ft | 151 kts | 23° |
| 2026-04-28 09:51 | 38.77590 | -9.13883 | 382 ft | 131 kts | 23° |
| 2026-04-28 09:52 | 38.78022 | -9.13649 | 382 ft | 16 kts | 23° |
| 2026-04-28 09:52 | 38.78111 | -9.13608 | 382 ft | 9 kts | 19° |
| 2026-04-28 09:52 | 38.78145 | -9.13588 | 382 ft | 4 kts | 23° |
| 2026-04-28 09:52 | 38.78195 | -9.13557 | 382 ft | 12 kts | 26° |
| 2026-04-28 09:53 | 38.78286 | -9.13470 | 382 ft | 19 kts | 41° |
| 2026-04-28 09:53 | 38.78302 | -9.13448 | 382 ft | 0 kts | 50° |
| 2026-04-28 09:53 | 38.78306 | -9.13441 | 382 ft | 2 kts | 50° |
| 2026-04-28 09:53 | 38.78322 | -9.13418 | 382 ft | 0 kts | 49° |
| 2026-04-28 09:54 | 38.78326 | -9.13411 | 382 ft | 3 kts | 49° |
| 2026-04-28 09:54 | 38.78348 | -9.13380 | 382 ft | 7 kts | 49° |
| 2026-04-28 09:54 | 38.78368 | -9.13302 | 382 ft | 12 kts | 91° |
| 2026-04-28 09:55 | 38.78308 | -9.13279 | 382 ft | 13 kts | 199° |
| 2026-04-28 09:55 | 38.78211 | -9.13325 | 382 ft | 17 kts | 201° |
| 2026-04-28 09:55 | 38.78089 | -9.13387 | 382 ft | 21 kts | 201° |
| 2026-04-28 09:55 | 38.77948 | -9.13395 | 382 ft | 22 kts | 172° |
| 2026-04-28 09:56 | 38.77793 | -9.13354 | 382 ft | 24 kts | 168° |
| 2026-04-28 09:56 | 38.77626 | -9.13332 | 382 ft | 24 kts | 174° |
| 2026-04-28 09:56 | 38.77470 | -9.13287 | 382 ft | 22 kts | 169° |
| 2026-04-28 09:56 | 38.77329 | -9.13253 | 382 ft | 19 kts | 173° |
| 2026-04-28 09:57 | 38.77268 | -9.13232 | 382 ft | 7 kts | 114° |
| 2026-04-28 09:57 | 38.77291 | -9.13182 | 382 ft | 6 kts | 69° |
| 2026-04-28 09:57 | 38.77295 | -9.13168 | 382 ft | 0 kts | 76° |